sensor_id;sensor_type;location;lat;lon;timestamp;P1;durP1;ratioP1;P2;durP2;ratioP2
26211;SDS011;13951;49.516;6.094;2022-11-04T00:01:43;2.30;;;1.07;;
26211;SDS011;13951;49.516;6.094;2022-11-04T00:04:18;5.00;;;1.10;;
26211;SDS011;13951;49.516;6.094;2022-11-04T00:06:53;3.97;;;1.20;;
26211;SDS011;13951;49.516;6.094;2022-11-04T00:09:28;5.37;;;1.10;;
26211;SDS011;13951;49.516;6.094;2022-11-04T00:12:01;4.43;;;1.20;;
26211;SDS011;13951;49.516;6.094;2022-11-04T00:14:53;4.40;;;1.50;;
26211;SDS011;13951;49.516;6.094;2022-11-04T00:17:45;3.97;;;1.40;;
26211;SDS011;13951;49.516;6.094;2022-11-04T00:20:18;3.70;;;1.27;;
26211;SDS011;13951;49.516;6.094;2022-11-04T00:23:11;1.70;;;1.00;;
26211;SDS011;13951;49.516;6.094;2022-11-04T00:26:03;2.20;;;1.00;;
26211;SDS011;13951;49.516;6.094;2022-11-04T00:28:54;3.22;;;1.30;;
26211;SDS011;13951;49.516;6.094;2022-11-04T00:31:27;2.43;;;1.10;;
26211;SDS011;13951;49.516;6.094;2022-11-04T00:34:18;3.77;;;1.20;;
26211;SDS011;13951;49.516;6.094;2022-11-04T00:36:51;6.73;;;1.10;;
26211;SDS011;13951;49.516;6.094;2022-11-04T00:39:24;1.70;;;1.03;;
26211;SDS011;13951;49.516;6.094;2022-11-04T00:41:57;1.53;;;0.90;;
26211;SDS011;13951;49.516;6.094;2022-11-04T00:44:29;5.80;;;1.13;;
26211;SDS011;13951;49.516;6.094;2022-11-04T00:47:02;3.77;;;1.13;;
26211;SDS011;13951;49.516;6.094;2022-11-04T00:49:36;3.40;;;1.10;;
26211;SDS011;13951;49.516;6.094;2022-11-04T00:52:08;3.93;;;1.20;;
26211;SDS011;13951;49.516;6.094;2022-11-04T00:54:41;1.30;;;0.90;;
26211;SDS011;13951;49.516;6.094;2022-11-04T00:57:14;2.83;;;0.90;;
26211;SDS011;13951;49.516;6.094;2022-11-04T00:59:47;3.03;;;0.87;;
26211;SDS011;13951;49.516;6.094;2022-11-04T01:02:20;2.47;;;1.20;;
26211;SDS011;13951;49.516;6.094;2022-11-04T01:04:53;4.70;;;1.07;;
26211;SDS011;13951;49.516;6.094;2022-11-04T01:07:26;7.60;;;1.20;;
26211;SDS011;13951;49.516;6.094;2022-11-04T01:09:58;3.13;;;1.03;;
26211;SDS011;13951;49.516;6.094;2022-11-04T01:12:31;4.63;;;1.20;;
26211;SDS011;13951;49.516;6.094;2022-11-04T01:15:04;2.00;;;0.93;;
26211;SDS011;13951;49.516;6.094;2022-11-04T01:17:37;2.67;;;1.10;;
26211;SDS011;13951;49.516;6.094;2022-11-04T01:20:11;4.93;;;1.27;;
26211;SDS011;13951;49.516;6.094;2022-11-04T01:22:45;1.90;;;1.00;;
26211;SDS011;13951;49.516;6.094;2022-11-04T01:25:18;6.77;;;1.30;;
26211;SDS011;13951;49.516;6.094;2022-11-04T01:27:51;1.93;;;1.03;;
26211;SDS011;13951;49.516;6.094;2022-11-04T01:30:23;3.27;;;1.20;;
26211;SDS011;13951;49.516;6.094;2022-11-04T01:32:56;3.40;;;1.43;;
26211;SDS011;13951;49.516;6.094;2022-11-04T01:35:30;1.67;;;1.23;;
26211;SDS011;13951;49.516;6.094;2022-11-04T01:38:03;2.80;;;1.20;;
26211;SDS011;13951;49.516;6.094;2022-11-04T01:40:36;4.30;;;1.10;;
26211;SDS011;13951;49.516;6.094;2022-11-04T01:43:14;1.93;;;1.10;;
26211;SDS011;13951;49.516;6.094;2022-11-04T01:45:53;2.67;;;1.07;;
26211;SDS011;13951;49.516;6.094;2022-11-04T01:48:31;2.70;;;1.10;;
26211;SDS011;13951;49.516;6.094;2022-11-04T01:51:06;3.30;;;1.40;;
26211;SDS011;13951;49.516;6.094;2022-11-04T01:53:39;2.00;;;1.20;;
26211;SDS011;13951;49.516;6.094;2022-11-04T01:56:14;1.93;;;1.20;;
26211;SDS011;13951;49.516;6.094;2022-11-04T01:58:48;1.73;;;1.20;;
26211;SDS011;13951;49.516;6.094;2022-11-04T02:01:24;4.30;;;1.10;;
26211;SDS011;13951;49.516;6.094;2022-11-04T02:03:58;2.23;;;1.10;;
26211;SDS011;13951;49.516;6.094;2022-11-04T02:06:49;4.43;;;0.97;;
26211;SDS011;13951;49.516;6.094;2022-11-04T02:09:29;3.77;;;1.00;;
26211;SDS011;13951;49.516;6.094;2022-11-04T02:12:03;1.37;;;1.00;;
26211;SDS011;13951;49.516;6.094;2022-11-04T02:14:55;2.50;;;0.97;;
26211;SDS011;13951;49.516;6.094;2022-11-04T02:20:36;4.77;;;1.03;;
26211;SDS011;13951;49.516;6.094;2022-11-04T02:23:55;1.55;;;1.20;;
26211;SDS011;13951;49.516;6.094;2022-11-04T02:46:28;2.37;;;1.07;;
26211;SDS011;13951;49.516;6.094;2022-11-04T02:51:48;3.27;;;1.00;;
26211;SDS011;13951;49.516;6.094;2022-11-04T02:54:55;1.90;;;0.70;;
26211;SDS011;13951;49.516;6.094;2022-11-04T02:57:43;1.57;;;0.90;;
26211;SDS011;13951;49.516;6.094;2022-11-04T03:00:18;2.47;;;0.80;;
26211;SDS011;13951;49.516;6.094;2022-11-04T03:03:14;6.33;;;1.20;;
26211;SDS011;13951;49.516;6.094;2022-11-04T03:05:57;3.83;;;0.80;;
26211;SDS011;13951;49.516;6.094;2022-11-04T03:08:33;3.67;;;0.90;;
26211;SDS011;13951;49.516;6.094;2022-11-04T03:11:15;2.87;;;0.90;;
26211;SDS011;13951;49.516;6.094;2022-11-04T03:14:04;2.37;;;0.90;;
26211;SDS011;13951;49.516;6.094;2022-11-04T03:16:41;1.70;;;0.80;;
26211;SDS011;13951;49.516;6.094;2022-11-04T03:19:30;1.27;;;0.80;;
26211;SDS011;13951;49.516;6.094;2022-11-04T03:22:19;4.13;;;0.90;;
26211;SDS011;13951;49.516;6.094;2022-11-04T03:24:54;3.87;;;1.03;;
26211;SDS011;13951;49.516;6.094;2022-11-04T03:30:16;3.07;;;0.80;;
26211;SDS011;13951;49.516;6.094;2022-11-04T03:35:45;4.78;;;1.02;;
26211;SDS011;13951;49.516;6.094;2022-11-04T03:38:19;5.77;;;1.70;;
26211;SDS011;13951;49.516;6.094;2022-11-04T03:40:53;1.13;;;1.00;;
26211;SDS011;13951;49.516;6.094;2022-11-04T03:43:26;2.60;;;0.80;;
26211;SDS011;13951;49.516;6.094;2022-11-04T03:46:00;4.63;;;1.20;;
26211;SDS011;13951;49.516;6.094;2022-11-04T03:48:34;1.70;;;0.80;;
26211;SDS011;13951;49.516;6.094;2022-11-04T03:51:08;3.80;;;0.93;;
26211;SDS011;13951;49.516;6.094;2022-11-04T03:53:41;2.83;;;0.90;;
26211;SDS011;13951;49.516;6.094;2022-11-04T03:58:57;3.43;;;0.80;;
26211;SDS011;13951;49.516;6.094;2022-11-04T04:01:54;5.07;;;0.90;;
26211;SDS011;13951;49.516;6.094;2022-11-04T04:04:43;3.83;;;0.80;;
26211;SDS011;13951;49.516;6.094;2022-11-04T04:14:38;1.17;;;0.97;;
26211;SDS011;13951;49.516;6.094;2022-11-04T04:20:21;0.77;;;0.60;;
26211;SDS011;13951;49.516;6.094;2022-11-04T04:23:00;2.03;;;0.90;;
26211;SDS011;13951;49.516;6.094;2022-11-04T04:26:02;2.30;;;0.97;;
26211;SDS011;13951;49.516;6.094;2022-11-04T04:28:56;3.97;;;1.10;;
26211;SDS011;13951;49.516;6.094;2022-11-04T04:31:33;2.77;;;0.90;;
26211;SDS011;13951;49.516;6.094;2022-11-04T04:34:21;3.40;;;0.67;;
26211;SDS011;13951;49.516;6.094;2022-11-04T04:39:37;2.63;;;0.80;;
26211;SDS011;13951;49.516;6.094;2022-11-04T04:42:31;0.73;;;0.60;;
26211;SDS011;13951;49.516;6.094;2022-11-04T04:45:24;1.83;;;0.70;;
26211;SDS011;13951;49.516;6.094;2022-11-04T04:48:04;1.80;;;0.77;;
26211;SDS011;13951;49.516;6.094;2022-11-04T04:50:43;1.03;;;0.60;;
26211;SDS011;13951;49.516;6.094;2022-11-04T04:53:19;0.67;;;0.67;;
26211;SDS011;13951;49.516;6.094;2022-11-04T04:55:52;1.50;;;0.83;;
26211;SDS011;13951;49.516;6.094;2022-11-04T04:58:25;1.53;;;0.83;;
26211;SDS011;13951;49.516;6.094;2022-11-04T05:00:58;3.43;;;0.90;;
26211;SDS011;13951;49.516;6.094;2022-11-04T05:03:31;4.53;;;1.00;;
26211;SDS011;13951;49.516;6.094;2022-11-04T05:06:03;1.30;;;0.70;;
26211;SDS011;13951;49.516;6.094;2022-11-04T05:08:36;1.50;;;0.60;;
26211;SDS011;13951;49.516;6.094;2022-11-04T05:11:09;3.93;;;0.80;;
26211;SDS011;13951;49.516;6.094;2022-11-04T05:13:42;2.23;;;0.80;;
26211;SDS011;13951;49.516;6.094;2022-11-04T05:16:15;1.10;;;0.87;;
26211;SDS011;13951;49.516;6.094;2022-11-04T05:18:50;5.20;;;1.00;;
26211;SDS011;13951;49.516;6.094;2022-11-04T05:21:23;5.33;;;1.57;;
26211;SDS011;13951;49.516;6.094;2022-11-04T05:23:55;3.60;;;1.43;;
26211;SDS011;13951;49.516;6.094;2022-11-04T05:26:28;2.73;;;0.80;;
26211;SDS011;13951;49.516;6.094;2022-11-04T05:29:01;1.30;;;0.70;;
26211;SDS011;13951;49.516;6.094;2022-11-04T05:31:34;2.60;;;0.90;;
26211;SDS011;13951;49.516;6.094;2022-11-04T05:34:09;3.87;;;0.90;;
26211;SDS011;13951;49.516;6.094;2022-11-04T05:36:42;2.00;;;0.70;;
26211;SDS011;13951;49.516;6.094;2022-11-04T05:39:15;1.63;;;0.80;;
26211;SDS011;13951;49.516;6.094;2022-11-04T05:41:48;3.67;;;1.13;;
26211;SDS011;13951;49.516;6.094;2022-11-04T05:44:21;6.27;;;1.10;;
26211;SDS011;13951;49.516;6.094;2022-11-04T05:46:53;3.97;;;0.80;;
26211;SDS011;13951;49.516;6.094;2022-11-04T05:49:26;3.33;;;1.40;;
26211;SDS011;13951;49.516;6.094;2022-11-04T05:51:59;5.70;;;1.17;;
26211;SDS011;13951;49.516;6.094;2022-11-04T05:54:32;2.87;;;1.00;;
26211;SDS011;13951;49.516;6.094;2022-11-04T05:57:05;1.83;;;0.80;;
26211;SDS011;13951;49.516;6.094;2022-11-04T05:59:37;1.90;;;0.77;;
26211;SDS011;13951;49.516;6.094;2022-11-04T06:02:10;1.90;;;0.80;;
26211;SDS011;13951;49.516;6.094;2022-11-04T06:04:43;2.67;;;0.90;;
26211;SDS011;13951;49.516;6.094;2022-11-04T06:07:16;2.97;;;0.90;;
26211;SDS011;13951;49.516;6.094;2022-11-04T06:09:49;5.37;;;1.70;;
26211;SDS011;13951;49.516;6.094;2022-11-04T06:12:22;9.73;;;4.20;;
26211;SDS011;13951;49.516;6.094;2022-11-04T06:14:55;4.17;;;1.63;;
26211;SDS011;13951;49.516;6.094;2022-11-04T06:17:27;3.33;;;0.80;;
26211;SDS011;13951;49.516;6.094;2022-11-04T06:20:00;4.43;;;2.50;;
26211;SDS011;13951;49.516;6.094;2022-11-04T06:22:33;5.60;;;3.27;;
26211;SDS011;13951;49.516;6.094;2022-11-04T06:25:06;2.27;;;1.40;;
26211;SDS011;13951;49.516;6.094;2022-11-04T06:27:39;2.97;;;1.60;;
26211;SDS011;13951;49.516;6.094;2022-11-04T06:30:12;3.03;;;1.80;;
26211;SDS011;13951;49.516;6.094;2022-11-04T06:32:45;5.63;;;2.47;;
26211;SDS011;13951;49.516;6.094;2022-11-04T06:35:18;4.70;;;1.80;;
26211;SDS011;13951;49.516;6.094;2022-11-04T06:37:53;3.27;;;1.90;;
26211;SDS011;13951;49.516;6.094;2022-11-04T06:40:26;3.10;;;1.90;;
26211;SDS011;13951;49.516;6.094;2022-11-04T06:42:59;4.77;;;2.00;;
26211;SDS011;13951;49.516;6.094;2022-11-04T06:45:32;5.37;;;1.77;;
26211;SDS011;13951;49.516;6.094;2022-11-04T06:48:05;6.07;;;2.10;;
26211;SDS011;13951;49.516;6.094;2022-11-04T06:50:37;6.80;;;1.73;;
26211;SDS011;13951;49.516;6.094;2022-11-04T06:53:10;2.00;;;1.00;;
26211;SDS011;13951;49.516;6.094;2022-11-04T06:55:43;2.30;;;1.10;;
26211;SDS011;13951;49.516;6.094;2022-11-04T06:58:16;6.17;;;1.00;;
26211;SDS011;13951;49.516;6.094;2022-11-04T07:00:50;2.07;;;0.80;;
26211;SDS011;13951;49.516;6.094;2022-11-04T07:03:24;3.00;;;1.10;;
26211;SDS011;13951;49.516;6.094;2022-11-04T07:05:58;5.03;;;1.20;;
26211;SDS011;13951;49.516;6.094;2022-11-04T07:08:31;6.17;;;1.17;;
26211;SDS011;13951;49.516;6.094;2022-11-04T07:11:03;0.87;;;0.80;;
26211;SDS011;13951;49.516;6.094;2022-11-04T07:13:36;4.23;;;1.20;;
26211;SDS011;13951;49.516;6.094;2022-11-04T07:16:09;5.43;;;1.07;;
26211;SDS011;13951;49.516;6.094;2022-11-04T07:18:42;2.47;;;1.10;;
26211;SDS011;13951;49.516;6.094;2022-11-04T07:21:16;5.33;;;1.20;;
26211;SDS011;13951;49.516;6.094;2022-11-04T07:23:49;5.30;;;1.40;;
26211;SDS011;13951;49.516;6.094;2022-11-04T07:26:22;3.00;;;1.27;;
26211;SDS011;13951;49.516;6.094;2022-11-04T07:28:55;2.23;;;1.10;;
26211;SDS011;13951;49.516;6.094;2022-11-04T07:31:30;6.10;;;1.40;;
26211;SDS011;13951;49.516;6.094;2022-11-04T07:34:03;2.73;;;1.27;;
26211;SDS011;13951;49.516;6.094;2022-11-04T07:36:36;3.43;;;1.30;;
26211;SDS011;13951;49.516;6.094;2022-11-04T07:39:10;10.43;;;1.50;;
26211;SDS011;13951;49.516;6.094;2022-11-04T07:41:42;2.97;;;1.30;;
26211;SDS011;13951;49.516;6.094;2022-11-04T07:44:15;6.40;;;1.67;;
26211;SDS011;13951;49.516;6.094;2022-11-04T07:46:48;5.93;;;1.80;;
26211;SDS011;13951;49.516;6.094;2022-11-04T07:49:21;5.07;;;1.30;;
26211;SDS011;13951;49.516;6.094;2022-11-04T07:51:54;3.63;;;1.50;;
26211;SDS011;13951;49.516;6.094;2022-11-04T07:54:26;6.30;;;1.57;;
26211;SDS011;13951;49.516;6.094;2022-11-04T07:57:00;6.73;;;1.70;;
26211;SDS011;13951;49.516;6.094;2022-11-04T07:59:32;2.87;;;1.30;;
26211;SDS011;13951;49.516;6.094;2022-11-04T08:02:05;2.97;;;1.70;;
26211;SDS011;13951;49.516;6.094;2022-11-04T08:04:38;4.17;;;1.90;;
26211;SDS011;13951;49.516;6.094;2022-11-04T08:07:12;4.07;;;1.93;;
26211;SDS011;13951;49.516;6.094;2022-11-04T08:09:45;6.60;;;2.70;;
26211;SDS011;13951;49.516;6.094;2022-11-04T08:12:17;5.70;;;2.40;;
26211;SDS011;13951;49.516;6.094;2022-11-04T08:14:53;7.10;;;3.07;;
26211;SDS011;13951;49.516;6.094;2022-11-04T08:17:26;6.80;;;3.00;;
26211;SDS011;13951;49.516;6.094;2022-11-04T08:19:58;7.00;;;2.63;;
26211;SDS011;13951;49.516;6.094;2022-11-04T08:22:32;4.70;;;2.53;;
26211;SDS011;13951;49.516;6.094;2022-11-04T08:25:05;3.03;;;2.70;;
26211;SDS011;13951;49.516;6.094;2022-11-04T08:27:38;4.63;;;2.77;;
26211;SDS011;13951;49.516;6.094;2022-11-04T08:30:11;3.23;;;2.63;;
26211;SDS011;13951;49.516;6.094;2022-11-04T08:32:44;3.57;;;2.87;;
26211;SDS011;13951;49.516;6.094;2022-11-04T08:35:17;2.30;;;2.10;;
26211;SDS011;13951;49.516;6.094;2022-11-04T08:37:50;3.78;;;2.30;;
26211;SDS011;13951;49.516;6.094;2022-11-04T08:40:23;2.50;;;2.17;;
26211;SDS011;13951;49.516;6.094;2022-11-04T08:42:55;4.70;;;2.00;;
26211;SDS011;13951;49.516;6.094;2022-11-04T08:45:28;3.50;;;1.60;;
26211;SDS011;13951;49.516;6.094;2022-11-04T08:48:05;2.33;;;1.60;;
26211;SDS011;13951;49.516;6.094;2022-11-04T08:50:38;2.73;;;1.33;;
26211;SDS011;13951;49.516;6.094;2022-11-04T08:53:11;3.97;;;1.90;;
26211;SDS011;13951;49.516;6.094;2022-11-04T08:55:44;6.47;;;2.90;;
26211;SDS011;13951;49.516;6.094;2022-11-04T08:58:17;4.10;;;1.70;;
26211;SDS011;13951;49.516;6.094;2022-11-04T09:00:50;5.43;;;2.33;;
26211;SDS011;13951;49.516;6.094;2022-11-04T09:03:23;3.97;;;2.70;;
26211;SDS011;13951;49.516;6.094;2022-11-04T09:05:56;2.83;;;2.43;;
26211;SDS011;13951;49.516;6.094;2022-11-04T09:08:29;3.60;;;2.17;;
26211;SDS011;13951;49.516;6.094;2022-11-04T09:11:04;5.17;;;2.60;;
26211;SDS011;13951;49.516;6.094;2022-11-04T09:13:39;5.00;;;3.03;;
26211;SDS011;13951;49.516;6.094;2022-11-04T09:16:12;4.53;;;2.83;;
26211;SDS011;13951;49.516;6.094;2022-11-04T09:18:46;3.63;;;2.93;;
26211;SDS011;13951;49.516;6.094;2022-11-04T09:21:18;6.70;;;3.20;;
26211;SDS011;13951;49.516;6.094;2022-11-04T09:23:52;5.10;;;3.03;;
26211;SDS011;13951;49.516;6.094;2022-11-04T09:26:25;3.83;;;2.70;;
26211;SDS011;13951;49.516;6.094;2022-11-04T09:28:58;4.17;;;3.07;;
26211;SDS011;13951;49.516;6.094;2022-11-04T09:31:31;2.70;;;2.50;;
26211;SDS011;13951;49.516;6.094;2022-11-04T09:34:04;3.92;;;2.95;;
26211;SDS011;13951;49.516;6.094;2022-11-04T09:36:37;3.50;;;2.53;;
26211;SDS011;13951;49.516;6.094;2022-11-04T09:39:10;4.87;;;2.37;;
26211;SDS011;13951;49.516;6.094;2022-11-04T09:44:57;4.73;;;2.37;;
26211;SDS011;13951;49.516;6.094;2022-11-04T09:47:56;3.33;;;1.80;;
26211;SDS011;13951;49.516;6.094;2022-11-04T09:50:43;2.80;;;1.70;;
26211;SDS011;13951;49.516;6.094;2022-11-04T09:53:22;3.60;;;1.97;;
26211;SDS011;13951;49.516;6.094;2022-11-04T09:56:24;2.97;;;1.83;;
26211;SDS011;13951;49.516;6.094;2022-11-04T09:59:02;4.37;;;2.07;;
26211;SDS011;13951;49.516;6.094;2022-11-04T10:01:38;2.60;;;1.90;;
26211;SDS011;13951;49.516;6.094;2022-11-04T10:10:54;2.10;;;1.73;;
26211;SDS011;13951;49.516;6.094;2022-11-04T10:16:48;3.17;;;1.80;;
26211;SDS011;13951;49.516;6.094;2022-11-04T10:22:54;3.73;;;1.60;;
26211;SDS011;13951;49.516;6.094;2022-11-04T10:28:44;1.87;;;1.40;;
26211;SDS011;13951;49.516;6.094;2022-11-04T10:31:23;4.20;;;1.70;;
26211;SDS011;13951;49.516;6.094;2022-11-04T10:34:03;2.90;;;1.57;;
26211;SDS011;13951;49.516;6.094;2022-11-04T10:36:40;2.93;;;1.70;;
26211;SDS011;13951;49.516;6.094;2022-11-04T10:39:30;5.23;;;1.80;;
26211;SDS011;13951;49.516;6.094;2022-11-04T10:42:08;2.57;;;1.53;;
26211;SDS011;13951;49.516;6.094;2022-11-04T10:44:53;5.63;;;1.97;;
26211;SDS011;13951;49.516;6.094;2022-11-04T10:47:41;3.37;;;1.97;;
26211;SDS011;13951;49.516;6.094;2022-11-04T10:50:23;5.37;;;2.30;;
26211;SDS011;13951;49.516;6.094;2022-11-04T10:53:13;3.07;;;2.77;;
26211;SDS011;13951;49.516;6.094;2022-11-04T10:58:27;3.77;;;2.43;;
26211;SDS011;13951;49.516;6.094;2022-11-04T11:04:04;3.03;;;1.57;;
26211;SDS011;13951;49.516;6.094;2022-11-04T11:06:38;4.90;;;1.83;;
26211;SDS011;13951;49.516;6.094;2022-11-04T11:09:13;3.58;;;2.00;;
26211;SDS011;13951;49.516;6.094;2022-11-04T11:11:52;2.17;;;1.40;;
26211;SDS011;13951;49.516;6.094;2022-11-04T11:22:48;3.80;;;1.23;;
26211;SDS011;13951;49.516;6.094;2022-11-04T11:25:32;2.13;;;1.27;;
26211;SDS011;13951;49.516;6.094;2022-11-04T11:28:19;3.23;;;1.30;;
26211;SDS011;13951;49.516;6.094;2022-11-04T11:31:23;5.57;;;1.20;;
26211;SDS011;13951;49.516;6.094;2022-11-04T11:34:20;2.97;;;1.37;;
26211;SDS011;13951;49.516;6.094;2022-11-04T11:36:57;1.13;;;0.90;;
26211;SDS011;13951;49.516;6.094;2022-11-04T11:39:33;3.50;;;1.40;;
26211;SDS011;13951;49.516;6.094;2022-11-04T11:42:10;1.33;;;1.20;;
26211;SDS011;13951;49.516;6.094;2022-11-04T11:44:53;2.20;;;1.30;;
26211;SDS011;13951;49.516;6.094;2022-11-04T11:50:10;1.47;;;0.97;;
26211;SDS011;13951;49.516;6.094;2022-11-04T11:53:15;1.13;;;0.60;;
26211;SDS011;13951;49.516;6.094;2022-11-04T11:55:58;0.80;;;0.80;;
26211;SDS011;13951;49.516;6.094;2022-11-04T11:58:45;2.53;;;1.10;;
26211;SDS011;13951;49.516;6.094;2022-11-04T12:02:00;3.37;;;0.87;;
26211;SDS011;13951;49.516;6.094;2022-11-04T12:04:35;3.07;;;0.80;;
26211;SDS011;13951;49.516;6.094;2022-11-04T12:07:31;0.60;;;0.50;;
26211;SDS011;13951;49.516;6.094;2022-11-04T12:13:30;2.30;;;0.70;;
26211;SDS011;13951;49.516;6.094;2022-11-04T12:22:02;0.40;;;0.40;;
26211;SDS011;13951;49.516;6.094;2022-11-04T12:30:27;0.50;;;0.50;;
26211;SDS011;13951;49.516;6.094;2022-11-04T12:33:54;0.40;;;0.40;;
26211;SDS011;13951;49.516;6.094;2022-11-04T12:47:42;0.83;;;0.50;;
26211;SDS011;13951;49.516;6.094;2022-11-04T12:50:31;1.15;;;0.47;;
26211;SDS011;13951;49.516;6.094;2022-11-04T12:56:11;1.00;;;0.70;;
26211;SDS011;13951;49.516;6.094;2022-11-04T13:01:46;0.47;;;0.47;;
26211;SDS011;13951;49.516;6.094;2022-11-04T13:04:34;0.77;;;0.40;;
26211;SDS011;13951;49.516;6.094;2022-11-04T13:07:21;0.70;;;0.50;;
26211;SDS011;13951;49.516;6.094;2022-11-04T13:10:14;0.67;;;0.63;;
26211;SDS011;13951;49.516;6.094;2022-11-04T13:12:52;2.27;;;1.53;;
26211;SDS011;13951;49.516;6.094;2022-11-04T13:15:29;1.50;;;1.20;;
26211;SDS011;13951;49.516;6.094;2022-11-04T13:18:18;0.80;;;0.70;;
26211;SDS011;13951;49.516;6.094;2022-11-04T13:23:43;1.80;;;0.60;;
26211;SDS011;13951;49.516;6.094;2022-11-04T13:26:23;0.60;;;0.60;;
26211;SDS011;13951;49.516;6.094;2022-11-04T13:29:05;0.80;;;0.60;;
26211;SDS011;13951;49.516;6.094;2022-11-04T13:37:30;0.70;;;0.60;;
26211;SDS011;13951;49.516;6.094;2022-11-04T13:40:13;1.57;;;0.80;;
26211;SDS011;13951;49.516;6.094;2022-11-04T13:49:11;4.23;;;0.70;;
26211;SDS011;13951;49.516;6.094;2022-11-04T13:57:14;0.83;;;0.83;;
26211;SDS011;13951;49.516;6.094;2022-11-04T14:02:43;0.83;;;0.60;;
26211;SDS011;13951;49.516;6.094;2022-11-04T14:08:09;0.60;;;0.60;;
26211;SDS011;13951;49.516;6.094;2022-11-04T14:18:42;1.27;;;0.50;;
26211;SDS011;13951;49.516;6.094;2022-11-04T14:21:17;0.70;;;0.60;;
26211;SDS011;13951;49.516;6.094;2022-11-04T14:23:54;1.97;;;0.80;;
26211;SDS011;13951;49.516;6.094;2022-11-04T14:29:18;1.07;;;0.97;;
26211;SDS011;13951;49.516;6.094;2022-11-04T14:31:55;1.53;;;1.00;;
26211;SDS011;13951;49.516;6.094;2022-11-04T14:34:32;2.97;;;1.30;;
26211;SDS011;13951;49.516;6.094;2022-11-04T14:37:19;1.20;;;0.90;;
26211;SDS011;13951;49.516;6.094;2022-11-04T14:39:56;1.13;;;1.03;;
26211;SDS011;13951;49.516;6.094;2022-11-04T14:42:48;0.77;;;0.70;;
26211;SDS011;13951;49.516;6.094;2022-11-04T14:45:24;1.63;;;0.87;;
26211;SDS011;13951;49.516;6.094;2022-11-04T14:48:09;1.20;;;0.80;;
26211;SDS011;13951;49.516;6.094;2022-11-04T14:50:49;1.40;;;0.60;;
26211;SDS011;13951;49.516;6.094;2022-11-04T14:53:29;1.53;;;0.80;;
26211;SDS011;13951;49.516;6.094;2022-11-04T14:56:05;0.60;;;0.60;;
26211;SDS011;13951;49.516;6.094;2022-11-04T14:58:38;0.80;;;0.70;;
26211;SDS011;13951;49.516;6.094;2022-11-04T15:01:37;1.60;;;0.83;;
26211;SDS011;13951;49.516;6.094;2022-11-04T15:04:25;0.60;;;0.60;;
26211;SDS011;13951;49.516;6.094;2022-11-04T15:07:01;1.43;;;0.70;;
26211;SDS011;13951;49.516;6.094;2022-11-04T15:09:39;0.70;;;0.67;;
26211;SDS011;13951;49.516;6.094;2022-11-04T15:12:18;1.80;;;0.93;;
26211;SDS011;13951;49.516;6.094;2022-11-04T15:15:30;1.43;;;1.03;;
26211;SDS011;13951;49.516;6.094;2022-11-04T15:18:08;1.67;;;1.37;;
26211;SDS011;13951;49.516;6.094;2022-11-04T15:20:53;2.13;;;1.33;;
26211;SDS011;13951;49.516;6.094;2022-11-04T15:23:31;2.83;;;1.60;;
26211;SDS011;13951;49.516;6.094;2022-11-04T15:26:13;2.53;;;1.58;;
26211;SDS011;13951;49.516;6.094;2022-11-04T15:29:00;2.00;;;1.50;;
26211;SDS011;13951;49.516;6.094;2022-11-04T15:31:49;3.20;;;1.60;;
26211;SDS011;13951;49.516;6.094;2022-11-04T15:34:24;1.50;;;1.40;;
26211;SDS011;13951;49.516;6.094;2022-11-04T15:36:59;1.10;;;1.00;;
26211;SDS011;13951;49.516;6.094;2022-11-04T15:39:37;2.03;;;1.50;;
26211;SDS011;13951;49.516;6.094;2022-11-04T15:42:49;2.60;;;1.93;;
26211;SDS011;13951;49.516;6.094;2022-11-04T15:45:59;3.20;;;2.23;;
26211;SDS011;13951;49.516;6.094;2022-11-04T15:51:04;1.57;;;0.80;;
26211;SDS011;13951;49.516;6.094;2022-11-04T15:56:21;0.73;;;0.70;;
26211;SDS011;13951;49.516;6.094;2022-11-04T15:58:57;0.70;;;0.70;;
26211;SDS011;13951;49.516;6.094;2022-11-04T16:01:31;0.70;;;0.70;;
26211;SDS011;13951;49.516;6.094;2022-11-04T16:04:04;1.17;;;1.00;;
26211;SDS011;13951;49.516;6.094;2022-11-04T16:06:38;1.13;;;0.83;;
26211;SDS011;13951;49.516;6.094;2022-11-04T16:09:18;2.37;;;0.80;;
26211;SDS011;13951;49.516;6.094;2022-11-04T16:14:47;1.50;;;0.80;;
26211;SDS011;13951;49.516;6.094;2022-11-04T16:17:22;1.23;;;1.13;;
26211;SDS011;13951;49.516;6.094;2022-11-04T16:20:00;1.00;;;0.90;;
26211;SDS011;13951;49.516;6.094;2022-11-04T16:22:35;1.10;;;0.83;;
26211;SDS011;13951;49.516;6.094;2022-11-04T16:25:18;0.80;;;0.80;;
26211;SDS011;13951;49.516;6.094;2022-11-04T16:27:52;1.13;;;0.80;;
26211;SDS011;13951;49.516;6.094;2022-11-04T16:30:25;2.53;;;0.90;;
26211;SDS011;13951;49.516;6.094;2022-11-04T16:33:07;0.73;;;0.73;;
26211;SDS011;13951;49.516;6.094;2022-11-04T16:35:43;0.73;;;0.73;;
26211;SDS011;13951;49.516;6.094;2022-11-04T16:38:16;0.70;;;0.70;;
26211;SDS011;13951;49.516;6.094;2022-11-04T16:40:49;1.00;;;0.70;;
26211;SDS011;13951;49.516;6.094;2022-11-04T16:43:22;0.87;;;0.80;;
26211;SDS011;13951;49.516;6.094;2022-11-04T16:45:55;1.43;;;1.03;;
26211;SDS011;13951;49.516;6.094;2022-11-04T16:48:29;1.87;;;1.17;;
26211;SDS011;13951;49.516;6.094;2022-11-04T16:51:02;1.17;;;0.80;;
26211;SDS011;13951;49.516;6.094;2022-11-04T16:53:35;1.27;;;0.93;;
26211;SDS011;13951;49.516;6.094;2022-11-04T16:56:08;0.43;;;0.43;;
26211;SDS011;13951;49.516;6.094;2022-11-04T16:58:42;0.80;;;0.50;;
26211;SDS011;13951;49.516;6.094;2022-11-04T17:01:15;0.60;;;0.60;;
26211;SDS011;13951;49.516;6.094;2022-11-04T17:03:49;1.00;;;0.60;;
26211;SDS011;13951;49.516;6.094;2022-11-04T17:06:22;1.33;;;0.80;;
26211;SDS011;13951;49.516;6.094;2022-11-04T17:08:56;1.13;;;0.70;;
26211;SDS011;13951;49.516;6.094;2022-11-04T17:11:29;1.03;;;0.70;;
26211;SDS011;13951;49.516;6.094;2022-11-04T17:14:02;0.77;;;0.70;;
26211;SDS011;13951;49.516;6.094;2022-11-04T17:16:35;1.07;;;0.80;;
26211;SDS011;13951;49.516;6.094;2022-11-04T17:19:09;0.90;;;0.80;;
26211;SDS011;13951;49.516;6.094;2022-11-04T17:21:48;0.60;;;0.60;;
26211;SDS011;13951;49.516;6.094;2022-11-04T17:24:20;1.53;;;0.77;;
26211;SDS011;13951;49.516;6.094;2022-11-04T17:26:53;11.20;;;5.67;;
26211;SDS011;13951;49.516;6.094;2022-11-04T17:29:26;1.20;;;1.10;;
26211;SDS011;13951;49.516;6.094;2022-11-04T17:32:01;2.80;;;0.80;;
26211;SDS011;13951;49.516;6.094;2022-11-04T17:34:34;1.25;;;0.70;;
26211;SDS011;13951;49.516;6.094;2022-11-04T17:37:07;0.97;;;0.70;;
26211;SDS011;13951;49.516;6.094;2022-11-04T17:39:45;0.83;;;0.67;;
26211;SDS011;13951;49.516;6.094;2022-11-04T17:42:17;1.40;;;0.60;;
26211;SDS011;13951;49.516;6.094;2022-11-04T17:45:09;0.90;;;0.63;;
26211;SDS011;13951;49.516;6.094;2022-11-04T17:47:42;2.03;;;0.50;;
26211;SDS011;13951;49.516;6.094;2022-11-04T17:50:15;1.57;;;0.73;;
26211;SDS011;13951;49.516;6.094;2022-11-04T17:52:47;0.80;;;0.70;;
26211;SDS011;13951;49.516;6.094;2022-11-04T17:55:20;0.80;;;0.80;;
26211;SDS011;13951;49.516;6.094;2022-11-04T17:57:59;0.83;;;0.70;;
26211;SDS011;13951;49.516;6.094;2022-11-04T18:00:31;3.17;;;1.17;;
26211;SDS011;13951;49.516;6.094;2022-11-04T18:03:05;1.70;;;1.10;;
26211;SDS011;13951;49.516;6.094;2022-11-04T18:05:40;1.17;;;0.77;;
26211;SDS011;13951;49.516;6.094;2022-11-04T18:08:13;3.43;;;1.10;;
26211;SDS011;13951;49.516;6.094;2022-11-04T18:10:46;1.13;;;0.80;;
26211;SDS011;13951;49.516;6.094;2022-11-04T18:13:19;3.13;;;0.80;;
26211;SDS011;13951;49.516;6.094;2022-11-04T18:15:51;2.00;;;0.80;;
26211;SDS011;13951;49.516;6.094;2022-11-04T18:18:25;1.60;;;0.80;;
26211;SDS011;13951;49.516;6.094;2022-11-04T18:21:01;0.50;;;0.50;;
26211;SDS011;13951;49.516;6.094;2022-11-04T18:23:35;0.70;;;0.50;;
26211;SDS011;13951;49.516;6.094;2022-11-04T18:26:08;0.70;;;0.57;;
26211;SDS011;13951;49.516;6.094;2022-11-04T18:28:41;0.80;;;0.50;;
26211;SDS011;13951;49.516;6.094;2022-11-04T18:31:19;0.87;;;0.57;;